sensor_id;sensor_type;location;lat;lon;timestamp;P1;durP1;ratioP1;P2;durP2;ratioP2
23304;SDS011;11821;51.456;8.844;2023-02-01T00:02:06;18.88;;;3.58;;
23304;SDS011;11821;51.456;8.844;2023-02-01T00:04:33;15.00;;;2.80;;
23304;SDS011;11821;51.456;8.844;2023-02-01T00:06:59;12.40;;;3.50;;
23304;SDS011;11821;51.456;8.844;2023-02-01T00:09:26;17.58;;;3.17;;
23304;SDS011;11821;51.456;8.844;2023-02-01T00:11:53;15.75;;;3.72;;
23304;SDS011;11821;51.456;8.844;2023-02-01T00:14:19;18.45;;;3.67;;
23304;SDS011;11821;51.456;8.844;2023-02-01T00:16:46;12.77;;;3.35;;
23304;SDS011;11821;51.456;8.844;2023-02-01T00:19:13;13.88;;;3.30;;
23304;SDS011;11821;51.456;8.844;2023-02-01T00:21:40;12.43;;;3.05;;
23304;SDS011;11821;51.456;8.844;2023-02-01T00:24:07;11.68;;;3.00;;
23304;SDS011;11821;51.456;8.844;2023-02-01T00:26:35;16.15;;;4.15;;
23304;SDS011;11821;51.456;8.844;2023-02-01T00:29:04;12.70;;;2.80;;
23304;SDS011;11821;51.456;8.844;2023-02-01T00:31:31;21.30;;;4.30;;
23304;SDS011;11821;51.456;8.844;2023-02-01T00:33:57;21.35;;;4.35;;
23304;SDS011;11821;51.456;8.844;2023-02-01T00:36:24;10.82;;;3.10;;
23304;SDS011;11821;51.456;8.844;2023-02-01T00:38:50;17.50;;;3.30;;
23304;SDS011;11821;51.456;8.844;2023-02-01T00:41:18;22.00;;;3.97;;
23304;SDS011;11821;51.456;8.844;2023-02-01T00:43:45;17.30;;;3.20;;
23304;SDS011;11821;51.456;8.844;2023-02-01T00:46:11;10.25;;;3.08;;
23304;SDS011;11821;51.456;8.844;2023-02-01T00:48:39;13.45;;;3.40;;
23304;SDS011;11821;51.456;8.844;2023-02-01T00:51:09;9.02;;;2.70;;
23304;SDS011;11821;51.456;8.844;2023-02-01T00:53:36;16.92;;;3.20;;
23304;SDS011;11821;51.456;8.844;2023-02-01T00:56:03;13.57;;;3.30;;
23304;SDS011;11821;51.456;8.844;2023-02-01T00:58:30;20.85;;;3.67;;
23304;SDS011;11821;51.456;8.844;2023-02-01T01:03:27;14.07;;;4.35;;
23304;SDS011;11821;51.456;8.844;2023-02-01T01:05:59;9.32;;;3.17;;
23304;SDS011;11821;51.456;8.844;2023-02-01T01:08:25;15.52;;;4.40;;
23304;SDS011;11821;51.456;8.844;2023-02-01T01:10:52;12.13;;;4.05;;
23304;SDS011;11821;51.456;8.844;2023-02-01T01:13:19;15.70;;;4.20;;
23304;SDS011;11821;51.456;8.844;2023-02-01T01:15:45;14.77;;;3.70;;
23304;SDS011;11821;51.456;8.844;2023-02-01T01:18:12;19.17;;;3.95;;
23304;SDS011;11821;51.456;8.844;2023-02-01T01:20:39;15.75;;;4.35;;
23304;SDS011;11821;51.456;8.844;2023-02-01T01:23:06;16.80;;;4.18;;
23304;SDS011;11821;51.456;8.844;2023-02-01T01:25:36;12.45;;;3.53;;
23304;SDS011;11821;51.456;8.844;2023-02-01T01:28:03;18.60;;;3.88;;
23304;SDS011;11821;51.456;8.844;2023-02-01T01:30:29;25.48;;;4.97;;
23304;SDS011;11821;51.456;8.844;2023-02-01T01:32:56;16.65;;;4.85;;
23304;SDS011;11821;51.456;8.844;2023-02-01T01:35:22;18.10;;;4.68;;
23304;SDS011;11821;51.456;8.844;2023-02-01T01:37:49;21.00;;;4.85;;
23304;SDS011;11821;51.456;8.844;2023-02-01T01:40:15;30.63;;;5.20;;
23304;SDS011;11821;51.456;8.844;2023-02-01T01:42:42;19.02;;;4.55;;
23304;SDS011;11821;51.456;8.844;2023-02-01T01:47:39;14.20;;;4.82;;
23304;SDS011;11821;51.456;8.844;2023-02-01T01:50:08;19.48;;;5.47;;
23304;SDS011;11821;51.456;8.844;2023-02-01T01:52:36;20.17;;;5.35;;
23304;SDS011;11821;51.456;8.844;2023-02-01T01:55:03;20.58;;;4.68;;
23304;SDS011;11821;51.456;8.844;2023-02-01T01:57:36;18.02;;;5.72;;
23304;SDS011;11821;51.456;8.844;2023-02-01T02:00:05;26.98;;;5.53;;
23304;SDS011;11821;51.456;8.844;2023-02-01T02:02:39;21.08;;;5.70;;
23304;SDS011;11821;51.456;8.844;2023-02-01T02:05:06;20.35;;;5.60;;
23304;SDS011;11821;51.456;8.844;2023-02-01T02:07:37;16.92;;;5.70;;
23304;SDS011;11821;51.456;8.844;2023-02-01T02:10:04;11.77;;;4.90;;
23304;SDS011;11821;51.456;8.844;2023-02-01T02:12:31;24.88;;;6.18;;
23304;SDS011;11821;51.456;8.844;2023-02-01T02:14:58;15.13;;;5.20;;
23304;SDS011;11821;51.456;8.844;2023-02-01T02:17:30;16.17;;;4.05;;
23304;SDS011;11821;51.456;8.844;2023-02-01T02:22:37;13.02;;;4.53;;
23304;SDS011;11821;51.456;8.844;2023-02-01T02:30:51;18.23;;;3.72;;
23304;SDS011;11821;51.456;8.844;2023-02-01T02:36:15;12.57;;;4.50;;
23304;SDS011;11821;51.456;8.844;2023-02-01T02:38:44;16.42;;;3.33;;
23304;SDS011;11821;51.456;8.844;2023-02-01T02:41:18;8.98;;;2.90;;
23304;SDS011;11821;51.456;8.844;2023-02-01T02:44:08;12.07;;;3.30;;
23304;SDS011;11821;51.456;8.844;2023-02-01T02:47:08;14.43;;;2.72;;
23304;SDS011;11821;51.456;8.844;2023-02-01T02:49:54;14.95;;;2.60;;
23304;SDS011;11821;51.456;8.844;2023-02-01T02:52:57;17.23;;;2.85;;
23304;SDS011;11821;51.456;8.844;2023-02-01T02:55:45;11.18;;;2.80;;
23304;SDS011;11821;51.456;8.844;2023-02-01T02:58:12;14.60;;;3.10;;
23304;SDS011;11821;51.456;8.844;2023-02-01T03:00:58;12.30;;;2.50;;
23304;SDS011;11821;51.456;8.844;2023-02-01T03:03:43;20.63;;;3.42;;
23304;SDS011;11821;51.456;8.844;2023-02-01T03:06:35;20.20;;;2.67;;
23304;SDS011;11821;51.456;8.844;2023-02-01T03:09:03;8.23;;;1.85;;
23304;SDS011;11821;51.456;8.844;2023-02-01T03:11:31;15.00;;;2.47;;
23304;SDS011;11821;51.456;8.844;2023-02-01T03:14:17;12.45;;;2.75;;
23304;SDS011;11821;51.456;8.844;2023-02-01T03:16:49;11.20;;;2.30;;
23304;SDS011;11821;51.456;8.844;2023-02-01T03:21:45;14.73;;;2.60;;
23304;SDS011;11821;51.456;8.844;2023-02-01T03:24:14;18.17;;;2.35;;
23304;SDS011;11821;51.456;8.844;2023-02-01T03:26:43;13.10;;;2.75;;
23304;SDS011;11821;51.456;8.844;2023-02-01T03:29:13;16.10;;;2.75;;
23304;SDS011;11821;51.456;8.844;2023-02-01T03:31:42;9.70;;;2.72;;
23304;SDS011;11821;51.456;8.844;2023-02-01T03:34:10;15.05;;;2.83;;
23304;SDS011;11821;51.456;8.844;2023-02-01T03:36:39;18.23;;;4.25;;
23304;SDS011;11821;51.456;8.844;2023-02-01T03:44:13;9.60;;;2.53;;
23304;SDS011;11821;51.456;8.844;2023-02-01T03:47:16;13.10;;;2.38;;
23304;SDS011;11821;51.456;8.844;2023-02-01T03:49:40;13.57;;;2.90;;
23304;SDS011;11821;51.456;8.844;2023-02-01T03:52:10;16.30;;;3.28;;
23304;SDS011;11821;51.456;8.844;2023-02-01T03:54:37;12.07;;;2.58;;
23304;SDS011;11821;51.456;8.844;2023-02-01T03:57:08;11.13;;;2.42;;
23304;SDS011;11821;51.456;8.844;2023-02-01T03:59:38;16.05;;;2.97;;
23304;SDS011;11821;51.456;8.844;2023-02-01T04:02:05;12.32;;;3.03;;
23304;SDS011;11821;51.456;8.844;2023-02-01T04:04:31;12.05;;;3.03;;
23304;SDS011;11821;51.456;8.844;2023-02-01T04:06:59;16.85;;;2.63;;
23304;SDS011;11821;51.456;8.844;2023-02-01T04:09:25;8.00;;;2.78;;
23304;SDS011;11821;51.456;8.844;2023-02-01T04:11:52;13.63;;;2.63;;
23304;SDS011;11821;51.456;8.844;2023-02-01T04:14:18;15.68;;;3.65;;
23304;SDS011;11821;51.456;8.844;2023-02-01T04:16:45;9.48;;;2.55;;
23304;SDS011;11821;51.456;8.844;2023-02-01T04:19:11;17.30;;;3.00;;
23304;SDS011;11821;51.456;8.844;2023-02-01T04:21:38;20.35;;;3.42;;
23304;SDS011;11821;51.456;8.844;2023-02-01T04:24:04;9.60;;;2.40;;
23304;SDS011;11821;51.456;8.844;2023-02-01T04:26:31;10.57;;;2.72;;
23304;SDS011;11821;51.456;8.844;2023-02-01T04:28:57;7.72;;;2.67;;
23304;SDS011;11821;51.456;8.844;2023-02-01T04:31:23;13.18;;;2.92;;
23304;SDS011;11821;51.456;8.844;2023-02-01T04:33:53;13.15;;;2.60;;
23304;SDS011;11821;51.456;8.844;2023-02-01T04:36:20;9.65;;;2.40;;
23304;SDS011;11821;51.456;8.844;2023-02-01T04:38:48;11.93;;;2.95;;
23304;SDS011;11821;51.456;8.844;2023-02-01T04:41:15;15.32;;;2.83;;
23304;SDS011;11821;51.456;8.844;2023-02-01T04:43:47;14.13;;;2.55;;
23304;SDS011;11821;51.456;8.844;2023-02-01T04:46:14;18.67;;;2.53;;
23304;SDS011;11821;51.456;8.844;2023-02-01T04:48:40;6.30;;;2.38;;
23304;SDS011;11821;51.456;8.844;2023-02-01T04:51:07;12.27;;;2.72;;
23304;SDS011;11821;51.456;8.844;2023-02-01T04:53:33;14.90;;;2.83;;
23304;SDS011;11821;51.456;8.844;2023-02-01T04:56:00;22.00;;;3.35;;
23304;SDS011;11821;51.456;8.844;2023-02-01T04:58:26;13.45;;;3.05;;
23304;SDS011;11821;51.456;8.844;2023-02-01T05:00:53;9.93;;;2.33;;
23304;SDS011;11821;51.456;8.844;2023-02-01T05:03:19;8.13;;;2.22;;
23304;SDS011;11821;51.456;8.844;2023-02-01T05:05:49;12.68;;;2.95;;
23304;SDS011;11821;51.456;8.844;2023-02-01T05:08:18;9.98;;;2.08;;
23304;SDS011;11821;51.456;8.844;2023-02-01T05:10:47;11.93;;;2.70;;
23304;SDS011;11821;51.456;8.844;2023-02-01T05:13:14;10.93;;;3.00;;
23304;SDS011;11821;51.456;8.844;2023-02-01T05:15:59;9.05;;;2.35;;
23304;SDS011;11821;51.456;8.844;2023-02-01T05:18:25;13.73;;;2.60;;
23304;SDS011;11821;51.456;8.844;2023-02-01T05:20:52;17.38;;;2.58;;
23304;SDS011;11821;51.456;8.844;2023-02-01T05:23:18;6.72;;;1.38;;
23304;SDS011;11821;51.456;8.844;2023-02-01T05:25:45;15.77;;;2.45;;
23304;SDS011;11821;51.456;8.844;2023-02-01T05:28:11;10.45;;;2.60;;
23304;SDS011;11821;51.456;8.844;2023-02-01T05:30:37;11.35;;;2.72;;
23304;SDS011;11821;51.456;8.844;2023-02-01T05:33:04;9.32;;;2.03;;
23304;SDS011;11821;51.456;8.844;2023-02-01T05:35:30;13.50;;;2.20;;
23304;SDS011;11821;51.456;8.844;2023-02-01T05:37:57;9.13;;;2.28;;
23304;SDS011;11821;51.456;8.844;2023-02-01T05:40:23;18.65;;;2.45;;
23304;SDS011;11821;51.456;8.844;2023-02-01T05:42:50;18.63;;;4.28;;
23304;SDS011;11821;51.456;8.844;2023-02-01T05:45:16;12.95;;;2.78;;
23304;SDS011;11821;51.456;8.844;2023-02-01T05:47:43;13.70;;;2.67;;
23304;SDS011;11821;51.456;8.844;2023-02-01T05:50:09;11.68;;;2.97;;
23304;SDS011;11821;51.456;8.844;2023-02-01T05:52:36;12.85;;;2.88;;
23304;SDS011;11821;51.456;8.844;2023-02-01T05:55:02;13.50;;;2.78;;
23304;SDS011;11821;51.456;8.844;2023-02-01T05:57:29;9.07;;;2.50;;
23304;SDS011;11821;51.456;8.844;2023-02-01T05:59:55;16.30;;;2.92;;
23304;SDS011;11821;51.456;8.844;2023-02-01T06:02:22;12.23;;;2.80;;
23304;SDS011;11821;51.456;8.844;2023-02-01T06:04:50;16.65;;;3.28;;
23304;SDS011;11821;51.456;8.844;2023-02-01T06:07:16;8.55;;;2.20;;
23304;SDS011;11821;51.456;8.844;2023-02-01T06:09:43;11.25;;;2.80;;
23304;SDS011;11821;51.456;8.844;2023-02-01T06:12:09;12.23;;;2.92;;
23304;SDS011;11821;51.456;8.844;2023-02-01T06:14:35;14.85;;;2.97;;
23304;SDS011;11821;51.456;8.844;2023-02-01T06:17:02;10.05;;;2.85;;
23304;SDS011;11821;51.456;8.844;2023-02-01T06:19:28;11.32;;;3.00;;
23304;SDS011;11821;51.456;8.844;2023-02-01T06:21:55;19.63;;;2.78;;
23304;SDS011;11821;51.456;8.844;2023-02-01T06:24:22;16.35;;;3.10;;
23304;SDS011;11821;51.456;8.844;2023-02-01T06:26:48;14.82;;;3.50;;
23304;SDS011;11821;51.456;8.844;2023-02-01T06:29:15;10.05;;;2.47;;
23304;SDS011;11821;51.456;8.844;2023-02-01T06:31:41;14.45;;;3.30;;
23304;SDS011;11821;51.456;8.844;2023-02-01T06:34:08;9.63;;;2.40;;
23304;SDS011;11821;51.456;8.844;2023-02-01T06:36:34;9.88;;;3.15;;
23304;SDS011;11821;51.456;8.844;2023-02-01T06:39:01;15.25;;;3.97;;
23304;SDS011;11821;51.456;8.844;2023-02-01T06:41:27;17.42;;;3.55;;
23304;SDS011;11821;51.456;8.844;2023-02-01T06:43:54;13.50;;;4.28;;
23304;SDS011;11821;51.456;8.844;2023-02-01T06:46:20;13.45;;;3.17;;
23304;SDS011;11821;51.456;8.844;2023-02-01T06:48:47;16.77;;;3.10;;
23304;SDS011;11821;51.456;8.844;2023-02-01T06:51:22;11.05;;;3.10;;
23304;SDS011;11821;51.456;8.844;2023-02-01T06:53:48;12.82;;;3.40;;
23304;SDS011;11821;51.456;8.844;2023-02-01T06:56:15;10.95;;;2.95;;
23304;SDS011;11821;51.456;8.844;2023-02-01T06:58:42;11.88;;;3.60;;
23304;SDS011;11821;51.456;8.844;2023-02-01T07:01:09;7.32;;;2.10;;
23304;SDS011;11821;51.456;8.844;2023-02-01T07:03:35;10.23;;;2.30;;
23304;SDS011;11821;51.456;8.844;2023-02-01T07:06:02;9.93;;;2.65;;
23304;SDS011;11821;51.456;8.844;2023-02-01T07:08:33;9.93;;;2.30;;
23304;SDS011;11821;51.456;8.844;2023-02-01T07:11:01;14.10;;;3.00;;
23304;SDS011;11821;51.456;8.844;2023-02-01T07:13:27;13.10;;;2.88;;
23304;SDS011;11821;51.456;8.844;2023-02-01T07:15:54;11.45;;;2.70;;
23304;SDS011;11821;51.456;8.844;2023-02-01T07:18:20;10.70;;;2.80;;
23304;SDS011;11821;51.456;8.844;2023-02-01T07:20:49;13.60;;;3.30;;
23304;SDS011;11821;51.456;8.844;2023-02-01T07:23:16;20.58;;;4.30;;
23304;SDS011;11821;51.456;8.844;2023-02-01T07:25:43;13.15;;;3.38;;
23304;SDS011;11821;51.456;8.844;2023-02-01T07:28:09;6.20;;;2.22;;
23304;SDS011;11821;51.456;8.844;2023-02-01T07:30:36;14.00;;;3.10;;
23304;SDS011;11821;51.456;8.844;2023-02-01T07:33:02;15.48;;;3.22;;
23304;SDS011;11821;51.456;8.844;2023-02-01T07:35:29;6.40;;;2.67;;
23304;SDS011;11821;51.456;8.844;2023-02-01T07:37:56;14.02;;;2.83;;
23304;SDS011;11821;51.456;8.844;2023-02-01T07:40:23;8.32;;;2.47;;
23304;SDS011;11821;51.456;8.844;2023-02-01T07:42:57;11.55;;;2.78;;
23304;SDS011;11821;51.456;8.844;2023-02-01T07:45:24;13.68;;;2.67;;
23304;SDS011;11821;51.456;8.844;2023-02-01T07:47:51;10.70;;;2.55;;
23304;SDS011;11821;51.456;8.844;2023-02-01T07:50:18;10.50;;;2.92;;
23304;SDS011;11821;51.456;8.844;2023-02-01T07:52:45;17.90;;;3.03;;
23304;SDS011;11821;51.456;8.844;2023-02-01T07:55:11;11.48;;;3.20;;
23304;SDS011;11821;51.456;8.844;2023-02-01T07:57:38;12.55;;;3.00;;
23304;SDS011;11821;51.456;8.844;2023-02-01T08:00:04;16.75;;;3.70;;
23304;SDS011;11821;51.456;8.844;2023-02-01T08:02:50;13.07;;;3.40;;
23304;SDS011;11821;51.456;8.844;2023-02-01T08:05:16;9.57;;;2.33;;
23304;SDS011;11821;51.456;8.844;2023-02-01T08:07:43;12.80;;;3.35;;
23304;SDS011;11821;51.456;8.844;2023-02-01T08:10:09;11.45;;;3.10;;
23304;SDS011;11821;51.456;8.844;2023-02-01T08:12:37;11.27;;;3.25;;
23304;SDS011;11821;51.456;8.844;2023-02-01T08:15:03;16.60;;;2.72;;
23304;SDS011;11821;51.456;8.844;2023-02-01T08:17:30;14.25;;;4.28;;
23304;SDS011;11821;51.456;8.844;2023-02-01T08:19:56;14.27;;;3.70;;
23304;SDS011;11821;51.456;8.844;2023-02-01T08:22:23;10.48;;;3.20;;
23304;SDS011;11821;51.456;8.844;2023-02-01T08:24:49;12.60;;;2.78;;
23304;SDS011;11821;51.456;8.844;2023-02-01T08:27:17;13.70;;;3.85;;
23304;SDS011;11821;51.456;8.844;2023-02-01T08:29:43;11.30;;;2.92;;
23304;SDS011;11821;51.456;8.844;2023-02-01T08:32:10;12.13;;;5.53;;
23304;SDS011;11821;51.456;8.844;2023-02-01T08:34:36;11.25;;;4.35;;
23304;SDS011;11821;51.456;8.844;2023-02-01T08:37:02;20.48;;;4.47;;
23304;SDS011;11821;51.456;8.844;2023-02-01T08:39:29;14.13;;;3.28;;
23304;SDS011;11821;51.456;8.844;2023-02-01T08:41:55;17.55;;;3.42;;
23304;SDS011;11821;51.456;8.844;2023-02-01T08:44:40;10.73;;;3.60;;
23304;SDS011;11821;51.456;8.844;2023-02-01T08:47:07;10.82;;;3.28;;
23304;SDS011;11821;51.456;8.844;2023-02-01T08:49:34;12.05;;;3.47;;
23304;SDS011;11821;51.456;8.844;2023-02-01T08:52:00;11.43;;;3.30;;
23304;SDS011;11821;51.456;8.844;2023-02-01T08:54:26;17.02;;;3.60;;
23304;SDS011;11821;51.456;8.844;2023-02-01T08:56:53;19.38;;;5.03;;
23304;SDS011;11821;51.456;8.844;2023-02-01T08:59:20;11.20;;;2.50;;
23304;SDS011;11821;51.456;8.844;2023-02-01T09:01:46;8.50;;;3.25;;
23304;SDS011;11821;51.456;8.844;2023-02-01T09:04:13;8.65;;;2.78;;
23304;SDS011;11821;51.456;8.844;2023-02-01T09:06:40;11.65;;;2.58;;
23304;SDS011;11821;51.456;8.844;2023-02-01T09:09:07;8.95;;;3.25;;
23304;SDS011;11821;51.456;8.844;2023-02-01T09:11:33;10.93;;;3.17;;
23304;SDS011;11821;51.456;8.844;2023-02-01T09:14:01;14.02;;;3.17;;
23304;SDS011;11821;51.456;8.844;2023-02-01T09:16:28;12.88;;;3.00;;
23304;SDS011;11821;51.456;8.844;2023-02-01T09:18:55;16.98;;;2.97;;
23304;SDS011;11821;51.456;8.844;2023-02-01T09:21:21;16.05;;;3.20;;
23304;SDS011;11821;51.456;8.844;2023-02-01T09:23:48;15.57;;;3.10;;
23304;SDS011;11821;51.456;8.844;2023-02-01T09:26:16;11.27;;;3.05;;
23304;SDS011;11821;51.456;8.844;2023-02-01T09:28:43;10.73;;;2.63;;
23304;SDS011;11821;51.456;8.844;2023-02-01T09:31:09;12.57;;;2.60;;
23304;SDS011;11821;51.456;8.844;2023-02-01T09:33:36;9.20;;;2.97;;
23304;SDS011;11821;51.456;8.844;2023-02-01T09:36:03;11.70;;;2.83;;
23304;SDS011;11821;51.456;8.844;2023-02-01T09:38:30;14.02;;;2.45;;
23304;SDS011;11821;51.456;8.844;2023-02-01T09:40:57;8.45;;;2.30;;
23304;SDS011;11821;51.456;8.844;2023-02-01T09:43:29;6.00;;;2.30;;
23304;SDS011;11821;51.456;8.844;2023-02-01T09:48:39;8.75;;;2.53;;
23304;SDS011;11821;51.456;8.844;2023-02-01T09:51:12;16.70;;;3.03;;
23304;SDS011;11821;51.456;8.844;2023-02-01T09:53:42;10.40;;;2.53;;
23304;SDS011;11821;51.456;8.844;2023-02-01T09:56:13;16.25;;;2.88;;
23304;SDS011;11821;51.456;8.844;2023-02-01T10:01:33;10.77;;;2.75;;
23304;SDS011;11821;51.456;8.844;2023-02-01T10:04:18;11.88;;;3.22;;
23304;SDS011;11821;51.456;8.844;2023-02-01T10:07:01;10.30;;;3.03;;
23304;SDS011;11821;51.456;8.844;2023-02-01T10:17:34;12.63;;;3.42;;
23304;SDS011;11821;51.456;8.844;2023-02-01T10:20:07;13.10;;;4.18;;
23304;SDS011;11821;51.456;8.844;2023-02-01T10:22:43;12.02;;;3.90;;
23304;SDS011;11821;51.456;8.844;2023-02-01T10:25:14;6.20;;;2.90;;
23304;SDS011;11821;51.456;8.844;2023-02-01T10:27:43;9.52;;;2.25;;
23304;SDS011;11821;51.456;8.844;2023-02-01T10:30:20;10.18;;;3.10;;
23304;SDS011;11821;51.456;8.844;2023-02-01T10:32:52;13.13;;;3.13;;
23304;SDS011;11821;51.456;8.844;2023-02-01T10:35:26;13.88;;;3.80;;
23304;SDS011;11821;51.456;8.844;2023-02-01T10:37:53;13.20;;;3.00;;
23304;SDS011;11821;51.456;8.844;2023-02-01T10:42:47;7.75;;;2.60;;
23304;SDS011;11821;51.456;8.844;2023-02-01T10:45:16;12.20;;;4.15;;
23304;SDS011;11821;51.456;8.844;2023-02-01T10:47:43;12.52;;;3.17;;
23304;SDS011;11821;51.456;8.844;2023-02-01T10:50:13;11.20;;;2.60;;
23304;SDS011;11821;51.456;8.844;2023-02-01T10:52:46;7.25;;;2.22;;
23304;SDS011;11821;51.456;8.844;2023-02-01T10:55:28;9.93;;;2.47;;
23304;SDS011;11821;51.456;8.844;2023-02-01T10:57:56;11.98;;;2.50;;
23304;SDS011;11821;51.456;8.844;2023-02-01T11:00:23;10.93;;;2.40;;
23304;SDS011;11821;51.456;8.844;2023-02-01T11:02:49;9.15;;;2.70;;
23304;SDS011;11821;51.456;8.844;2023-02-01T11:05:16;11.15;;;2.08;;
23304;SDS011;11821;51.456;8.844;2023-02-01T11:07:48;14.73;;;2.55;;
23304;SDS011;11821;51.456;8.844;2023-02-01T11:13:02;17.70;;;3.30;;
23304;SDS011;11821;51.456;8.844;2023-02-01T11:15:28;5.45;;;2.53;;
23304;SDS011;11821;51.456;8.844;2023-02-01T11:17:55;5.95;;;2.83;;
23304;SDS011;11821;51.456;8.844;2023-02-01T11:22:57;15.57;;;3.35;;
23304;SDS011;11821;51.456;8.844;2023-02-01T11:25:23;7.15;;;2.42;;
23304;SDS011;11821;51.456;8.844;2023-02-01T11:27:51;9.07;;;2.75;;
23304;SDS011;11821;51.456;8.844;2023-02-01T11:30:31;17.60;;;3.40;;
23304;SDS011;11821;51.456;8.844;2023-02-01T11:32:59;12.75;;;3.78;;
23304;SDS011;11821;51.456;8.844;2023-02-01T11:35:26;13.98;;;3.08;;
23304;SDS011;11821;51.456;8.844;2023-02-01T11:37:55;13.95;;;3.22;;
23304;SDS011;11821;51.456;8.844;2023-02-01T11:40:28;13.75;;;3.00;;
23304;SDS011;11821;51.456;8.844;2023-02-01T11:42:57;12.18;;;3.30;;
23304;SDS011;11821;51.456;8.844;2023-02-01T11:47:54;8.85;;;3.00;;
23304;SDS011;11821;51.456;8.844;2023-02-01T11:50:32;10.43;;;3.60;;
23304;SDS011;11821;51.456;8.844;2023-02-01T11:53:25;8.98;;;2.75;;
23304;SDS011;11821;51.456;8.844;2023-02-01T11:56:51;12.52;;;3.15;;
23304;SDS011;11821;51.456;8.844;2023-02-01T12:06:50;10.50;;;3.72;;
23304;SDS011;11821;51.456;8.844;2023-02-01T12:12:29;6.72;;;2.47;;
23304;SDS011;11821;51.456;8.844;2023-02-01T12:20:19;8.70;;;2.95;;
23304;SDS011;11821;51.456;8.844;2023-02-01T12:27:55;10.55;;;3.08;;
23304;SDS011;11821;51.456;8.844;2023-02-01T12:30:42;11.85;;;3.05;;
23304;SDS011;11821;51.456;8.844;2023-02-01T12:38:42;10.23;;;2.75;;
23304;SDS011;11821;51.456;8.844;2023-02-01T12:43:57;9.38;;;2.75;;
23304;SDS011;11821;51.456;8.844;2023-02-01T12:46:35;14.93;;;3.20;;
23304;SDS011;11821;51.456;8.844;2023-02-01T12:51:33;13.43;;;3.83;;
23304;SDS011;11821;51.456;8.844;2023-02-01T12:54:06;9.95;;;3.53;;
23304;SDS011;11821;51.456;8.844;2023-02-01T12:56:38;13.70;;;3.13;;
23304;SDS011;11821;51.456;8.844;2023-02-01T13:02:47;9.95;;;3.85;;
23304;SDS011;11821;51.456;8.844;2023-02-01T13:04:55;12.48;;;3.85;;
23304;SDS011;11821;51.456;8.844;2023-02-01T13:09:55;9.82;;;4.10;;
23304;SDS011;11821;51.456;8.844;2023-02-01T13:15:16;11.95;;;3.85;;
23304;SDS011;11821;51.456;8.844;2023-02-01T13:17:43;11.63;;;3.95;;
23304;SDS011;11821;51.456;8.844;2023-02-01T13:20:17;15.63;;;3.67;;
23304;SDS011;11821;51.456;8.844;2023-02-01T13:22:46;14.35;;;3.88;;
23304;SDS011;11821;51.456;8.844;2023-02-01T13:25:26;10.30;;;3.53;;
23304;SDS011;11821;51.456;8.844;2023-02-01T13:27:55;11.50;;;3.92;;
23304;SDS011;11821;51.456;8.844;2023-02-01T13:30:27;10.73;;;3.30;;
23304;SDS011;11821;51.456;8.844;2023-02-01T13:33:01;7.90;;;2.92;;
23304;SDS011;11821;51.456;8.844;2023-02-01T13:40:41;9.90;;;2.83;;
23304;SDS011;11821;51.456;8.844;2023-02-01T13:43:22;8.98;;;3.00;;
23304;SDS011;11821;51.456;8.844;2023-02-01T13:45:51;9.68;;;3.08;;
23304;SDS011;11821;51.456;8.844;2023-02-01T13:48:38;10.45;;;2.97;;
23304;SDS011;11821;51.456;8.844;2023-02-01T13:51:05;7.93;;;3.13;;
23304;SDS011;11821;51.456;8.844;2023-02-01T13:53:36;8.63;;;2.97;;
23304;SDS011;11821;51.456;8.844;2023-02-01T13:56:20;10.23;;;3.00;;
23304;SDS011;11821;51.456;8.844;2023-02-01T13:58:48;11.77;;;3.05;;
23304;SDS011;11821;51.456;8.844;2023-02-01T14:03:59;9.23;;;4.15;;
23304;SDS011;11821;51.456;8.844;2023-02-01T14:11:35;8.18;;;3.65;;
23304;SDS011;11821;51.456;8.844;2023-02-01T14:14:07;9.30;;;3.90;;
23304;SDS011;11821;51.456;8.844;2023-02-01T14:16:33;8.70;;;3.40;;
23304;SDS011;11821;51.456;8.844;2023-02-01T14:19:00;7.60;;;3.25;;
23304;SDS011;11821;51.456;8.844;2023-02-01T14:21:34;7.00;;;3.42;;
23304;SDS011;11821;51.456;8.844;2023-02-01T14:31:52;8.38;;;2.88;;
23304;SDS011;11821;51.456;8.844;2023-02-01T14:39:24;9.63;;;3.53;;
23304;SDS011;11821;51.456;8.844;2023-02-01T14:41:58;10.23;;;4.05;;
23304;SDS011;11821;51.456;8.844;2023-02-01T14:44:27;11.90;;;4.22;;
23304;SDS011;11821;51.456;8.844;2023-02-01T14:47:04;19.13;;;5.85;;
23304;SDS011;11821;51.456;8.844;2023-02-01T14:52:29;17.45;;;4.38;;
23304;SDS011;11821;51.456;8.844;2023-02-01T14:54:57;8.25;;;3.22;;
23304;SDS011;11821;51.456;8.844;2023-02-01T14:57:26;12.57;;;4.40;;
23304;SDS011;11821;51.456;8.844;2023-02-01T14:59:58;10.82;;;3.53;;
23304;SDS011;11821;51.456;8.844;2023-02-01T15:02:26;11.95;;;4.03;;
23304;SDS011;11821;51.456;8.844;2023-02-01T15:04:56;15.05;;;3.72;;
23304;SDS011;11821;51.456;8.844;2023-02-01T15:07:23;11.27;;;3.90;;
23304;SDS011;11821;51.456;8.844;2023-02-01T15:09:50;14.88;;;4.50;;
23304;SDS011;11821;51.456;8.844;2023-02-01T15:12:18;14.65;;;3.97;;
23304;SDS011;11821;51.456;8.844;2023-02-01T15:17:35;9.68;;;4.32;;
23304;SDS011;11821;51.456;8.844;2023-02-01T15:20:12;11.00;;;4.35;;
23304;SDS011;11821;51.456;8.844;2023-02-01T15:22:39;9.55;;;3.70;;
23304;SDS011;11821;51.456;8.844;2023-02-01T15:25:06;9.82;;;3.85;;
23304;SDS011;11821;51.456;8.844;2023-02-01T15:27:44;16.60;;;3.95;;
23304;SDS011;11821;51.456;8.844;2023-02-01T15:30:18;7.53;;;3.70;;
23304;SDS011;11821;51.456;8.844;2023-02-01T15:32:44;10.88;;;4.22;;
23304;SDS011;11821;51.456;8.844;2023-02-01T15:43:20;10.77;;;3.42;;
23304;SDS011;11821;51.456;8.844;2023-02-01T15:45:47;7.80;;;3.78;;
23304;SDS011;11821;51.456;8.844;2023-02-01T15:48:20;8.63;;;3.95;;
23304;SDS011;11821;51.456;8.844;2023-02-01T15:50:48;13.07;;;3.72;;
23304;SDS011;11821;51.456;8.844;2023-02-01T15:53:25;11.82;;;3.65;;
23304;SDS011;11821;51.456;8.844;2023-02-01T15:55:58;10.65;;;3.67;;
23304;SDS011;11821;51.456;8.844;2023-02-01T15:58:25;9.00;;;3.20;;
23304;SDS011;11821;51.456;8.844;2023-02-01T16:05:55;13.27;;;3.13;;
23304;SDS011;11821;51.456;8.844;2023-02-01T16:08:26;10.88;;;3.13;;
23304;SDS011;11821;51.456;8.844;2023-02-01T16:11:00;11.07;;;4.28;;
23304;SDS011;11821;51.456;8.844;2023-02-01T16:13:27;13.00;;;3.92;;
23304;SDS011;11821;51.456;8.844;2023-02-01T16:15:53;14.07;;;4.20;;
23304;SDS011;11821;51.456;8.844;2023-02-01T16:18:20;8.32;;;4.20;;
23304;SDS011;11821;51.456;8.844;2023-02-01T16:20:47;15.20;;;4.38;;
23304;SDS011;11821;51.456;8.844;2023-02-01T16:23:13;17.27;;;4.00;;
23304;SDS011;11821;51.456;8.844;2023-02-01T16:25:40;16.02;;;4.60;;
23304;SDS011;11821;51.456;8.844;2023-02-01T16:28:06;16.67;;;4.40;;
23304;SDS011;11821;51.456;8.844;2023-02-01T16:30:33;20.15;;;4.60;;
23304;SDS011;11821;51.456;8.844;2023-02-01T16:33:00;14.65;;;3.72;;
23304;SDS011;11821;51.456;8.844;2023-02-01T16:35:31;17.65;;;4.00;;
23304;SDS011;11821;51.456;8.844;2023-02-01T16:38:04;13.40;;;3.40;;
23304;SDS011;11821;51.456;8.844;2023-02-01T16:40:37;15.85;;;3.22;;
23304;SDS011;11821;51.456;8.844;2023-02-01T16:43:22;12.45;;;4.18;;
23304;SDS011;11821;51.456;8.844;2023-02-01T16:45:50;17.85;;;2.83;;
23304;SDS011;11821;51.456;8.844;2023-02-01T16:48:22;15.25;;;3.60;;
23304;SDS011;11821;51.456;8.844;2023-02-01T16:50:50;10.07;;;3.25;;
23304;SDS011;11821;51.456;8.844;2023-02-01T16:53:17;12.32;;;3.42;;
23304;SDS011;11821;51.456;8.844;2023-02-01T16:55:43;10.77;;;3.00;;
23304;SDS011;11821;51.456;8.844;2023-02-01T16:58:12;14.00;;;2.92;;
23304;SDS011;11821;51.456;8.844;2023-02-01T17:00:38;14.68;;;3.90;;
23304;SDS011;11821;51.456;8.844;2023-02-01T17:03:05;14.98;;;3.55;;
23304;SDS011;11821;51.456;8.844;2023-02-01T17:05:31;13.10;;;2.53;;